createdAt,value
2017-12-20T00:01:23.784Z,5.90
2017-12-20T00:03:50.024Z,5.90
2017-12-20T00:06:16.398Z,5.80
2017-12-20T00:08:43.368Z,5.60
2017-12-20T00:11:09.628Z,5.60
2017-12-20T00:13:35.868Z,5.70
2017-12-20T00:16:02.124Z,5.70
2017-12-20T00:18:29.099Z,5.80
2017-12-20T00:20:55.360Z,5.70
2017-12-20T00:23:21.724Z,5.80
2017-12-20T00:25:48.726Z,5.80
2017-12-20T00:28:14.959Z,5.80
2017-12-20T00:30:41.222Z,5.80
2017-12-20T00:33:08.196Z,5.80
2017-12-20T00:35:34.466Z,5.80
2017-12-20T00:38:01.633Z,5.70
2017-12-20T00:40:27.878Z,5.70
2017-12-20T00:42:54.873Z,5.80
2017-12-20T00:45:21.124Z,5.80
2017-12-20T00:47:47.399Z,5.80
2017-12-20T00:50:13.647Z,5.80
2017-12-20T00:52:39.913Z,5.90
2017-12-20T00:55:06.169Z,5.90
2017-12-20T00:57:33.170Z,5.90
2017-12-20T00:59:59.464Z,5.90
2017-12-20T01:02:25.702Z,5.90
2017-12-20T01:04:51.951Z,5.80
2017-12-20T01:07:18.297Z,5.90
2017-12-20T01:09:44.523Z,5.90
2017-12-20T01:12:11.535Z,6.20
2017-12-20T01:14:37.766Z,6.20
2017-12-20T01:17:04.015Z,6.20
2017-12-20T01:19:30.273Z,6.30
2017-12-20T01:21:56.557Z,6.40
2017-12-20T01:24:22.835Z,6.50
2017-12-20T01:26:49.077Z,6.60
2017-12-20T01:29:16.128Z,6.80
2017-12-20T01:31:43.135Z,6.60
2017-12-20T01:34:09.407Z,6.60
2017-12-20T01:36:36.483Z,6.80
2017-12-20T01:39:02.826Z,6.80
2017-12-20T01:41:29.141Z,6.60
2017-12-20T01:43:55.453Z,6.50
2017-12-20T01:46:22.495Z,6.40
2017-12-20T01:48:49.605Z,6.30
2017-12-20T01:51:16.593Z,6.20
2017-12-20T01:53:43.741Z,6.20
2017-12-20T01:56:10.801Z,6.20
2017-12-20T01:58:37.081Z,6.10
2017-12-20T02:01:03.355Z,6.20
2017-12-20T02:03:30.422Z,6.40
2017-12-20T02:05:56.667Z,6.40
2017-12-20T02:08:22.949Z,6.20
2017-12-20T02:10:49.931Z,6.10
2017-12-20T02:13:16.237Z,6.10
2017-12-20T02:15:43.253Z,6.10
2017-12-20T02:18:09.628Z,6.10
2017-12-20T02:20:35.895Z,6.10
2017-12-20T02:23:02.164Z,6.10
2017-12-20T02:25:29.202Z,5.80
2017-12-20T02:27:55.465Z,5.70
2017-12-20T02:30:21.764Z,5.70
2017-12-20T02:32:56.440Z,5.60
2017-12-20T02:35:22.725Z,5.60
2017-12-20T02:37:49.731Z,5.70
2017-12-20T02:40:16.021Z,5.70
2017-12-20T02:42:42.303Z,5.70
2017-12-20T02:45:08.594Z,5.70
2017-12-20T02:47:34.937Z,5.70
2017-12-20T02:50:01.236Z,5.60
2017-12-20T02:52:27.567Z,5.60
2017-12-20T02:54:53.849Z,5.60
2017-12-20T02:57:20.170Z,5.70
2017-12-20T02:59:46.445Z,5.60
2017-12-20T03:02:13.442Z,5.60
2017-12-20T03:04:39.712Z,5.60
2017-12-20T03:07:06.765Z,5.70
2017-12-20T03:09:33.772Z,5.70
2017-12-20T03:12:00.044Z,5.70
2017-12-20T03:14:27.056Z,5.60
2017-12-20T03:16:53.341Z,5.60
2017-12-20T03:19:19.657Z,5.60
2017-12-20T03:21:46.740Z,5.70
2017-12-20T03:24:12.990Z,5.70
2017-12-20T03:26:39.269Z,5.70
2017-12-20T03:29:05.531Z,5.70
2017-12-20T03:31:31.795Z,5.60
2017-12-20T03:33:58.064Z,5.70
2017-12-20T03:36:24.339Z,5.70
2017-12-20T03:38:50.576Z,5.80
2017-12-20T03:41:16.859Z,5.90
2017-12-20T03:43:43.112Z,6.00
2017-12-20T03:46:09.373Z,6.10
2017-12-20T03:48:35.653Z,6.00
2017-12-20T03:51:01.940Z,5.90
2017-12-20T03:53:28.951Z,5.80
2017-12-20T03:55:55.216Z,5.80
2017-12-20T03:58:22.228Z,5.70
2017-12-20T04:00:48.493Z,5.70
2017-12-20T04:03:15.561Z,5.70
2017-12-20T04:05:41.812Z,5.70
2017-12-20T04:08:08.088Z,5.60
2017-12-20T04:10:34.341Z,5.70
2017-12-20T04:13:00.626Z,5.70
2017-12-20T04:15:26.895Z,5.70
2017-12-20T04:17:53.921Z,5.80
2017-12-20T04:20:20.146Z,5.80
2017-12-20T04:22:46.395Z,5.80
2017-12-20T04:25:13.392Z,5.70
2017-12-20T04:27:39.658Z,5.70
2017-12-20T04:30:06.044Z,5.80
2017-12-20T04:32:32.336Z,5.80
2017-12-20T04:34:59.303Z,5.80
2017-12-20T04:37:25.570Z,5.80
2017-12-20T04:39:51.783Z,5.90
2017-12-20T04:42:18.018Z,6.00
2017-12-20T04:44:44.281Z,6.00
2017-12-20T04:47:10.511Z,6.10
2017-12-20T04:49:37.513Z,6.20
2017-12-20T04:52:03.765Z,6.20
2017-12-20T04:54:30.021Z,6.30
2017-12-20T04:56:57.009Z,6.20
2017-12-20T04:59:23.251Z,6.20
2017-12-20T05:01:49.492Z,6.20
2017-12-20T05:04:15.772Z,6.30
2017-12-20T05:06:42.004Z,6.30
2017-12-20T05:09:08.259Z,6.30
2017-12-20T05:11:34.490Z,6.30
2017-12-20T05:14:01.502Z,6.40
2017-12-20T05:16:27.744Z,6.30
2017-12-20T05:18:54.001Z,6.30
2017-12-20T05:21:20.237Z,6.30
2017-12-20T05:23:46.490Z,6.30
2017-12-20T05:26:12.729Z,6.20
2017-12-20T05:28:39.732Z,6.20
2017-12-20T05:31:05.991Z,6.20
2017-12-20T05:33:32.231Z,6.30
2017-12-20T05:35:59.199Z,6.30
2017-12-20T05:38:25.469Z,6.30
2017-12-20T05:40:51.749Z,6.20
2017-12-20T05:43:18.000Z,6.10
2017-12-20T05:45:44.253Z,6.10
2017-12-20T05:48:10.581Z,6.10
2017-12-20T05:50:36.823Z,6.20
2017-12-20T05:53:03.086Z,6.10
2017-12-20T05:55:30.072Z,6.10
2017-12-20T05:57:56.324Z,6.10
2017-12-20T06:00:22.614Z,6.00
2017-12-20T06:02:48.856Z,5.70
2017-12-20T06:05:15.219Z,5.70
2017-12-20T06:07:41.454Z,5.70
2017-12-20T06:10:07.719Z,5.70
2017-12-20T06:12:34.171Z,5.70
2017-12-20T06:15:00.446Z,5.80
2017-12-20T06:17:26.658Z,5.80
2017-12-20T06:19:52.898Z,5.80
2017-12-20T06:22:19.132Z,5.70
2017-12-20T06:24:45.378Z,5.80
2017-12-20T06:27:12.340Z,5.80
2017-12-20T06:29:38.574Z,5.80
2017-12-20T06:32:04.817Z,5.80
2017-12-20T06:34:31.063Z,5.60
2017-12-20T06:36:57.306Z,5.60
2017-12-20T06:39:23.561Z,5.70
2017-12-20T06:41:50.533Z,5.60
2017-12-20T06:44:16.793Z,5.60
2017-12-20T06:46:43.040Z,5.70
2017-12-20T06:49:09.309Z,5.70
2017-12-20T06:51:36.296Z,5.90
2017-12-20T06:54:02.576Z,5.80
2017-12-20T06:56:29.578Z,6.10
2017-12-20T06:58:55.853Z,6.10
2017-12-20T07:01:22.877Z,5.90
2017-12-20T07:03:49.140Z,5.90
2017-12-20T07:06:15.401Z,5.90
2017-12-20T07:08:41.655Z,5.80
2017-12-20T07:11:09.383Z,5.80
2017-12-20T07:13:35.640Z,5.80
2017-12-20T07:16:02.663Z,5.90
2017-12-20T07:18:28.953Z,5.90
2017-12-20T07:20:55.979Z,5.90
2017-12-20T07:23:22.235Z,5.90
2017-12-20T07:25:49.223Z,6.10
2017-12-20T07:28:15.668Z,6.10
2017-12-20T07:30:42.668Z,6.20
2017-12-20T07:33:12.437Z,6.20
2017-12-20T07:35:42.696Z,5.90
2017-12-20T07:38:09.019Z,5.90
2017-12-20T07:40:36.056Z,5.70
2017-12-20T07:43:02.312Z,5.70
2017-12-20T07:45:28.571Z,5.70
2017-12-20T07:47:54.819Z,5.70
2017-12-20T07:50:21.049Z,5.60
2017-12-20T07:52:47.302Z,5.60
2017-12-20T07:55:13.532Z,5.60
2017-12-20T07:57:40.548Z,5.70
2017-12-20T08:00:06.784Z,5.80
2017-12-20T08:02:33.041Z,5.70
2017-12-20T08:05:00.019Z,5.80
2017-12-20T08:07:26.272Z,5.80
2017-12-20T08:09:52.526Z,5.90
2017-12-20T08:12:18.775Z,5.90
2017-12-20T08:14:45.734Z,5.90
2017-12-20T08:17:11.979Z,5.90
2017-12-20T08:19:38.233Z,6.00
2017-12-20T08:22:04.468Z,6.00
2017-12-20T08:24:30.744Z,6.10
2017-12-20T08:26:57.739Z,6.00
2017-12-20T08:29:24.757Z,6.00
2017-12-20T08:31:51.023Z,6.00
2017-12-20T08:34:17.279Z,5.90
2017-12-20T08:36:43.506Z,5.70
2017-12-20T08:39:10.516Z,5.70
2017-12-20T08:41:36.776Z,5.70
2017-12-20T08:44:03.041Z,5.80
2017-12-20T08:46:29.305Z,5.90
2017-12-20T08:48:55.543Z,5.90
2017-12-20T08:51:21.805Z,6.00
2017-12-20T08:53:48.784Z,6.00
2017-12-20T08:56:15.045Z,6.00
2017-12-20T08:58:41.263Z,6.00
2017-12-20T09:01:07.524Z,6.10
2017-12-20T09:03:33.758Z,6.10
2017-12-20T09:06:00.007Z,6.00
2017-12-20T09:08:26.242Z,5.90
2017-12-20T09:10:52.509Z,5.90
2017-12-20T09:13:18.751Z,6.00
2017-12-20T09:15:45.003Z,5.90
2017-12-20T09:18:11.968Z,5.90
2017-12-20T09:20:38.231Z,5.90
2017-12-20T09:23:04.481Z,5.90
2017-12-20T09:25:30.716Z,5.90
2017-12-20T09:27:57.009Z,5.90
2017-12-20T09:30:23.252Z,6.00
2017-12-20T09:32:49.510Z,6.00
2017-12-20T09:35:15.760Z,5.90
2017-12-20T09:37:42.748Z,6.00
2017-12-20T09:40:08.979Z,6.00
2017-12-20T09:42:35.236Z,6.10
2017-12-20T09:45:01.468Z,6.20
2017-12-20T09:47:27.725Z,6.10
2017-12-20T09:49:54.710Z,6.10
2017-12-20T09:52:20.977Z,6.10
2017-12-20T09:54:47.207Z,6.00
2017-12-20T09:57:13.467Z,6.10
2017-12-20T09:59:39.687Z,6.20
2017-12-20T10:02:06.701Z,6.20
2017-12-20T10:04:32.996Z,6.20
2017-12-20T10:06:59.243Z,6.20
2017-12-20T10:09:25.549Z,6.20
2017-12-20T10:11:51.807Z,6.20
2017-12-20T10:14:18.101Z,6.30
2017-12-20T10:16:44.365Z,6.40
2017-12-20T10:19:10.633Z,6.40
2017-12-20T10:21:37.643Z,6.40
2017-12-20T10:24:03.915Z,6.40
2017-12-20T10:26:30.892Z,6.40
2017-12-20T10:28:57.162Z,6.40
2017-12-20T10:31:23.440Z,6.40
2017-12-20T10:33:49.699Z,6.50
2017-12-20T10:36:16.682Z,6.40
2017-12-20T10:38:43.716Z,6.30
2017-12-20T10:41:09.955Z,6.30
2017-12-20T10:43:36.960Z,6.30
2017-12-20T10:46:03.202Z,6.30
2017-12-20T10:48:29.481Z,6.30
2017-12-20T10:50:55.752Z,6.40
2017-12-20T10:53:22.764Z,6.40
2017-12-20T10:55:49.014Z,6.40
2017-12-20T10:58:15.266Z,6.40
2017-12-20T11:00:42.357Z,6.40
2017-12-20T11:03:09.366Z,6.30
2017-12-20T11:05:35.634Z,6.20
2017-12-20T11:08:02.636Z,6.20
2017-12-20T11:10:28.906Z,6.20
2017-12-20T11:12:55.898Z,6.20
2017-12-20T11:15:22.182Z,6.20
2017-12-20T11:17:49.161Z,6.20
2017-12-20T11:20:15.440Z,6.20
2017-12-20T11:22:42.605Z,6.30
2017-12-20T11:25:09.618Z,6.30
2017-12-20T11:27:35.900Z,6.30
2017-12-20T11:30:02.195Z,6.40
2017-12-20T11:32:28.493Z,6.40
2017-12-20T11:34:54.775Z,6.40
2017-12-20T11:37:21.767Z,6.50
2017-12-20T11:39:48.799Z,6.60
2017-12-20T11:42:15.051Z,6.60
2017-12-20T11:44:41.356Z,6.60
2017-12-20T11:47:07.625Z,6.60
2017-12-20T11:49:33.913Z,6.70
2017-12-20T11:52:00.160Z,6.70
2017-12-20T11:54:26.439Z,6.70
2017-12-20T11:56:53.448Z,6.80
2017-12-20T11:59:19.733Z,6.70
2017-12-20T12:01:45.994Z,6.80
2017-12-20T12:04:12.289Z,6.80
2017-12-20T12:06:38.601Z,6.80
2017-12-20T12:09:05.591Z,6.90
2017-12-20T12:11:31.857Z,6.90
2017-12-20T12:13:58.150Z,6.80
2017-12-20T12:16:24.389Z,6.80
2017-12-20T12:18:50.633Z,6.80
2017-12-20T12:21:16.920Z,6.80
2017-12-20T12:23:43.196Z,6.90
2017-12-20T12:26:09.476Z,6.90
2017-12-20T12:28:35.711Z,7.00
2017-12-20T12:31:02.008Z,6.90
2017-12-20T12:33:28.975Z,6.80
2017-12-20T12:35:55.263Z,6.80
2017-12-20T12:38:21.487Z,6.90
2017-12-20T12:40:47.785Z,6.90
2017-12-20T12:43:14.037Z,6.90
2017-12-20T12:45:40.336Z,6.90
2017-12-20T12:48:06.579Z,6.90
2017-12-20T12:50:32.832Z,6.90
2017-12-20T12:52:59.104Z,6.80
2017-12-20T12:55:25.357Z,7.00
2017-12-20T12:57:51.619Z,7.00
2017-12-20T13:00:17.875Z,7.00
2017-12-20T13:02:44.877Z,7.00
2017-12-20T13:05:11.149Z,7.00
2017-12-20T13:07:38.138Z,6.90
2017-12-20T13:10:04.389Z,6.90
2017-12-20T13:12:30.672Z,6.90
2017-12-20T13:14:56.955Z,6.90
2017-12-20T13:17:23.232Z,6.90
2017-12-20T13:19:49.477Z,6.90
2017-12-20T13:22:15.732Z,6.90
2017-12-20T13:24:41.985Z,6.90
2017-12-20T13:27:08.982Z,6.90
2017-12-20T13:29:35.229Z,6.90
2017-12-20T13:32:01.513Z,6.80
2017-12-20T13:34:27.743Z,6.80
2017-12-20T13:36:53.982Z,6.80
2017-12-20T13:39:20.228Z,6.80
2017-12-20T13:41:46.524Z,6.80
2017-12-20T13:44:13.521Z,6.90
2017-12-20T13:46:39.796Z,6.80
2017-12-20T13:49:06.835Z,6.90
2017-12-20T13:51:33.860Z,7.00
2017-12-20T13:54:00.107Z,7.00
2017-12-20T13:56:27.136Z,7.00
2017-12-20T13:58:53.396Z,7.00
2017-12-20T14:01:20.412Z,7.00
2017-12-20T14:03:46.674Z,6.90
2017-12-20T14:06:13.717Z,6.90
2017-12-20T14:08:40.745Z,6.90
2017-12-20T14:11:07.005Z,6.90
2017-12-20T14:13:33.269Z,6.90
2017-12-20T14:15:59.578Z,6.90
2017-12-20T14:18:25.833Z,6.90
2017-12-20T14:20:52.849Z,6.90
2017-12-20T14:23:19.098Z,6.90
2017-12-20T14:25:45.327Z,6.90
2017-12-20T14:28:11.589Z,6.80
2017-12-20T14:30:37.836Z,6.80
2017-12-20T14:33:04.810Z,6.80
2017-12-20T14:35:31.055Z,6.70
2017-12-20T14:37:57.346Z,6.80
2017-12-20T14:40:24.326Z,6.80
2017-12-20T14:42:50.575Z,6.80
2017-12-20T14:45:16.817Z,6.70
2017-12-20T14:47:43.092Z,6.80
2017-12-20T14:50:09.317Z,6.80
2017-12-20T14:52:35.580Z,6.70
2017-12-20T14:55:01.856Z,6.60
2017-12-20T14:57:28.887Z,6.60
2017-12-20T14:59:55.149Z,6.60
2017-12-20T15:02:22.171Z,6.70
2017-12-20T15:04:49.181Z,6.70
2017-12-20T15:07:15.452Z,6.70
2017-12-20T15:09:41.736Z,6.80
2017-12-20T15:12:08.015Z,6.80
2017-12-20T15:14:34.992Z,6.80
2017-12-20T15:17:01.263Z,6.80
2017-12-20T15:19:27.516Z,6.90
2017-12-20T15:21:54.531Z,6.70
2017-12-20T15:24:20.802Z,6.70
2017-12-20T15:26:47.807Z,6.60
2017-12-20T15:29:14.817Z,6.60
2017-12-20T15:31:41.121Z,6.60
2017-12-20T15:34:08.118Z,6.60
2017-12-20T15:36:34.382Z,6.60
2017-12-20T15:39:00.657Z,6.50
2017-12-20T15:41:26.928Z,6.50
2017-12-20T15:43:53.183Z,6.60
2017-12-20T15:46:20.247Z,6.70
2017-12-20T15:48:47.253Z,6.70
2017-12-20T15:51:13.531Z,6.70
2017-12-20T15:53:39.784Z,6.70
2017-12-20T15:56:06.031Z,6.60
2017-12-20T15:58:32.308Z,6.70
2017-12-20T16:00:58.599Z,6.60
2017-12-20T16:03:24.854Z,6.70
2017-12-20T16:05:51.847Z,6.60
2017-12-20T16:08:18.107Z,6.60
2017-12-20T16:10:44.343Z,6.60
2017-12-20T16:13:10.597Z,6.60
2017-12-20T16:15:37.570Z,6.60
2017-12-20T16:18:03.831Z,6.60
2017-12-20T16:20:30.084Z,6.60
2017-12-20T16:22:57.102Z,6.60
2017-12-20T16:25:23.327Z,6.60
2017-12-20T16:27:49.587Z,6.60
2017-12-20T16:30:15.856Z,6.60
2017-12-20T16:32:42.132Z,6.60
2017-12-20T16:35:08.393Z,6.60
2017-12-20T16:37:34.705Z,6.60
2017-12-20T16:40:01.721Z,6.60
2017-12-20T16:42:27.997Z,6.50
2017-12-20T16:44:55.023Z,6.60
2017-12-20T16:47:21.302Z,6.60
2017-12-20T16:49:47.548Z,6.60
2017-12-20T16:52:13.853Z,6.60
2017-12-20T16:54:40.106Z,6.60
2017-12-20T16:57:06.363Z,6.50
2017-12-20T16:59:32.649Z,6.50
2017-12-20T17:01:58.915Z,6.60
2017-12-20T17:04:25.215Z,6.60
2017-12-20T17:06:51.453Z,6.50
2017-12-20T17:09:17.901Z,6.60
2017-12-20T17:11:44.193Z,6.60
2017-12-20T17:14:10.447Z,6.60
2017-12-20T17:16:36.759Z,6.60
2017-12-20T17:19:03.066Z,6.50
2017-12-20T17:21:29.327Z,6.60
2017-12-20T17:23:55.583Z,6.60
2017-12-20T17:26:21.850Z,6.50
2017-12-20T17:28:48.121Z,6.60
2017-12-20T17:31:14.416Z,6.60
2017-12-20T17:33:40.688Z,6.60
2017-12-20T17:36:06.979Z,6.60
2017-12-20T17:38:33.250Z,6.60
2017-12-20T17:40:59.487Z,6.60
2017-12-20T17:43:25.779Z,6.60
2017-12-20T17:45:52.045Z,6.70
2017-12-20T17:48:18.308Z,6.60
2017-12-20T17:50:45.344Z,6.60
2017-12-20T17:53:12.405Z,6.60
2017-12-20T17:55:39.396Z,6.60
2017-12-20T17:58:05.683Z,6.60
2017-12-20T18:00:31.972Z,6.60
2017-12-20T18:02:58.295Z,6.60
2017-12-20T18:05:24.561Z,6.60
2017-12-20T18:07:50.835Z,6.60
2017-12-20T18:10:17.109Z,6.60
2017-12-20T18:12:43.371Z,6.60
2017-12-20T18:15:09.665Z,6.60
2017-12-20T18:17:35.979Z,6.60
2017-12-20T18:20:02.295Z,6.60
2017-12-20T18:22:29.282Z,6.60
2017-12-20T18:24:56.320Z,6.60
2017-12-20T18:27:22.560Z,6.60
2017-12-20T18:29:48.909Z,6.60
2017-12-20T18:32:15.209Z,6.70
2017-12-20T18:34:42.302Z,6.60
2017-12-20T18:37:08.559Z,6.60
2017-12-20T18:39:34.860Z,6.70
2017-12-20T18:42:01.127Z,6.60
2017-12-20T18:44:27.405Z,6.60
2017-12-20T18:46:53.748Z,6.70
2017-12-20T18:49:20.027Z,6.60
2017-12-20T18:51:46.267Z,6.70
2017-12-20T18:54:13.286Z,6.60
2017-12-20T18:56:39.549Z,6.60
2017-12-20T18:59:06.590Z,6.70
2017-12-20T19:01:32.839Z,6.70
2017-12-20T19:03:59.094Z,6.70
2017-12-20T19:06:25.502Z,6.60
2017-12-20T19:08:51.813Z,6.60
2017-12-20T19:11:18.801Z,6.70
2017-12-20T19:13:45.071Z,6.70
2017-12-20T19:16:12.341Z,6.60
2017-12-20T19:18:39.352Z,6.70
2017-12-20T19:21:05.629Z,6.70
2017-12-20T19:23:32.647Z,6.70
2017-12-20T19:25:58.920Z,6.70
2017-12-20T19:28:25.177Z,6.70
2017-12-20T19:30:51.451Z,6.60
2017-12-20T19:33:18.471Z,6.70
2017-12-20T19:35:44.727Z,6.70
2017-12-20T19:38:11.756Z,6.70
2017-12-20T19:40:38.005Z,6.70
2017-12-20T19:43:05.026Z,6.70
2017-12-20T19:45:31.334Z,6.70
2017-12-20T19:47:57.741Z,6.80
2017-12-20T19:50:24.715Z,6.70
2017-12-20T19:52:50.992Z,6.70
2017-12-20T19:55:17.994Z,6.80
2017-12-20T19:57:45.022Z,6.80
2017-12-20T20:00:11.267Z,6.80
2017-12-20T20:02:37.551Z,6.80
2017-12-20T20:05:04.555Z,6.80
2017-12-20T20:07:30.816Z,6.70
2017-12-20T20:09:57.096Z,6.80
2017-12-20T20:12:23.360Z,6.80
2017-12-20T20:14:49.582Z,6.80
2017-12-20T20:17:15.862Z,6.80
2017-12-20T20:19:42.096Z,6.80
2017-12-20T20:22:08.350Z,6.70
2017-12-20T20:24:34.609Z,6.80
2017-12-20T20:27:01.599Z,6.70
2017-12-20T20:29:27.897Z,6.70
2017-12-20T20:31:54.906Z,6.70
2017-12-20T20:34:21.157Z,6.70
2017-12-20T20:36:47.391Z,6.70
2017-12-20T20:39:13.648Z,6.70
2017-12-20T20:41:39.867Z,6.70
2017-12-20T20:44:07.109Z,6.70
2017-12-20T20:46:34.062Z,6.70
2017-12-20T20:49:01.072Z,6.70
2017-12-20T20:51:27.294Z,6.70
2017-12-20T20:53:53.551Z,6.70
2017-12-20T20:56:20.533Z,6.70
2017-12-20T20:58:46.795Z,6.70
2017-12-20T21:01:13.014Z,6.70
2017-12-20T21:03:39.279Z,6.70
2017-12-20T21:06:05.525Z,6.70
2017-12-20T21:08:32.551Z,6.70
2017-12-20T21:10:58.800Z,6.70
2017-12-20T21:13:25.791Z,6.70
2017-12-20T21:15:52.035Z,6.70
2017-12-20T21:18:19.021Z,6.70
2017-12-20T21:20:45.998Z,6.70
2017-12-20T21:23:12.269Z,6.70
2017-12-20T21:25:38.483Z,6.70
2017-12-20T21:28:04.767Z,6.70
2017-12-20T21:30:31.038Z,6.70
2017-12-20T21:32:58.886Z,6.70
2017-12-20T21:35:25.383Z,6.70
2017-12-20T21:37:52.394Z,6.70
2017-12-20T21:40:18.651Z,6.70
2017-12-20T21:42:44.904Z,6.70
2017-12-20T21:45:11.245Z,6.70
2017-12-20T21:47:37.516Z,6.80
2017-12-20T21:50:03.780Z,6.80
2017-12-20T21:52:30.773Z,6.80
2017-12-20T21:54:57.043Z,6.70
2017-12-20T21:57:24.046Z,6.80
2017-12-20T21:59:50.283Z,6.70
2017-12-20T22:02:16.685Z,6.80
2017-12-20T22:04:42.946Z,6.70
2017-12-20T22:07:09.252Z,6.70
2017-12-20T22:09:35.510Z,6.70
2017-12-20T22:12:01.793Z,6.70
2017-12-20T22:14:28.104Z,6.80
2017-12-20T22:16:55.089Z,6.70
2017-12-20T22:19:21.344Z,6.70
2017-12-20T22:21:47.597Z,6.80
2017-12-20T22:24:14.589Z,6.80
2017-12-20T22:26:40.840Z,6.70
2017-12-20T22:29:07.113Z,6.80
2017-12-20T22:31:34.108Z,6.70
2017-12-20T22:34:00.354Z,6.70
2017-12-20T22:36:26.729Z,6.80
2017-12-20T22:38:53.003Z,6.80
2017-12-20T22:41:19.344Z,6.70
2017-12-20T22:43:45.586Z,6.70
2017-12-20T22:46:11.860Z,6.70
2017-12-20T22:48:38.091Z,6.70
2017-12-20T22:51:04.349Z,6.80
2017-12-20T22:53:30.596Z,6.70
2017-12-20T22:55:56.854Z,6.80
2017-12-20T22:58:23.833Z,6.80
2017-12-20T23:00:50.106Z,6.80
2017-12-20T23:03:16.340Z,6.90
2017-12-20T23:05:42.590Z,6.90
2017-12-20T23:08:09.583Z,6.80
2017-12-20T23:10:35.845Z,6.80
2017-12-20T23:13:02.085Z,6.90
2017-12-20T23:15:29.096Z,6.90
2017-12-20T23:17:55.431Z,6.90
2017-12-20T23:20:21.706Z,6.90
2017-12-20T23:22:47.953Z,6.90
2017-12-20T23:25:14.200Z,6.90
2017-12-20T23:27:40.463Z,6.90
2017-12-20T23:30:06.754Z,6.80
2017-12-20T23:32:33.029Z,6.80
2017-12-20T23:35:00.011Z,6.80
2017-12-20T23:37:26.292Z,6.80
2017-12-20T23:39:52.519Z,6.90
2017-12-20T23:42:18.788Z,6.90
2017-12-20T23:44:45.032Z,6.90
2017-12-20T23:47:11.305Z,6.90
2017-12-20T23:49:37.559Z,7.00
2017-12-20T23:52:04.610Z,6.90
2017-12-20T23:54:31.626Z,6.90
2017-12-20T23:56:57.945Z,6.90
2017-12-20T23:59:24.199Z,6.90
